Time;durP1;ratioP1;P1;durP2;ratioP2;P2;SDS_P1;SDS_P2;PMS_P1;PMS_P2;Temp;Humidity;BMP_temperature;BMP_pressure;BME280_temperature;BME280_humidity;BME280_pressure;Samples;Min_cycle;Max_cycle;Signal;HPM_P1;HPM_P2
2022/07/27 00:00:20;;;;;;;5.57;5.18;;;;;;;21.92;53.56;94072.91;2616060;54;20168;-75
2022/07/27 00:02:49;;;;;;;5.13;4.70;;;;;;;22.08;53.08;94048.13;2614893;54;20188;-75
2022/07/27 00:05:19;;;;;;;5.40;4.75;;;;;;;22.14;53.85;94048.00;2615497;47;20164;-75
2022/07/27 00:07:47;;;;;;;9.95;5.60;;;;;;;22.35;52.90;94054.72;2616092;47;20212;-75
2022/07/27 00:10:16;;;;;;;4.50;4.13;;;;;;;22.41;51.57;94048.84;2616191;47;20192;-75
2022/07/27 00:12:45;;;;;;;5.93;5.20;;;;;;;23.37;52.05;94061.69;2615884;54;20168;-75
2022/07/27 00:15:16;;;;;;;6.78;5.60;;;;;;;23.13;49.84;94065.19;2615996;54;20313;-76
2022/07/27 00:17:45;;;;;;;6.22;5.63;;;;;;;23.09;50.10;94063.13;2617271;50;20153;-77
2022/07/27 00:20:14;;;;;;;5.13;4.65;;;;;;;23.51;50.08;94072.88;2617291;54;20152;-75
2022/07/27 00:22:43;;;;;;;5.68;5.10;;;;;;;23.15;51.01;94065.13;2617740;39;20572;-75
2022/07/27 00:25:12;;;;;;;5.40;4.63;;;;;;;22.71;51.50;94067.59;2617531;54;20153;-75
2022/07/27 00:27:40;;;;;;;7.25;4.43;;;;;;;23.25;51.61;94067.75;2617089;54;20149;-75
2022/07/27 00:30:10;;;;;;;5.47;4.85;;;;;;;22.86;50.66;94065.13;2617316;54;20273;-75
2022/07/27 00:32:41;;;;;;;4.90;4.53;;;;;;;22.68;51.04;94064.09;2617182;54;20156;-75
2022/07/27 00:35:11;;;;;;;6.32;5.45;;;;;;;22.58;51.49;94072.94;2617271;47;20168;-75
2022/07/27 00:37:40;;;;;;;5.68;4.63;;;;;;;22.64;51.89;94090.16;2617508;47;20307;-75
2022/07/27 00:40:11;;;;;;;4.93;4.53;;;;;;;23.16;52.35;94095.44;2617074;47;20171;-75
2022/07/27 00:42:40;;;;;;;4.93;4.10;;;;;;;23.74;50.93;94090.34;2617518;47;20149;-75
2022/07/27 00:45:10;;;;;;;5.30;4.80;;;;;;;23.27;49.80;94068.44;2616711;54;20157;-76
2022/07/27 00:47:41;;;;;;;5.18;4.78;;;;;;;22.70;51.06;94075.56;2617764;39;20535;-76
2022/07/27 00:50:11;;;;;;;5.40;4.85;;;;;;;22.84;51.60;94100.53;2617175;54;20137;-76
2022/07/27 00:52:42;;;;;;;4.35;4.07;;;;;;;22.14;51.76;94059.53;2617241;46;20294;-76
2022/07/27 00:55:12;;;;;;;5.38;4.88;;;;;;;21.62;53.34;94071.34;2617111;46;20199;-75
2022/07/27 00:57:42;;;;;;;5.47;3.70;;;;;;;21.85;53.98;94091.09;2617300;54;20149;-75
2022/07/27 01:00:12;;;;;;;4.53;4.13;;;;;;;22.09;52.90;94098.56;2616880;54;20149;-76
2022/07/27 01:02:43;;;;;;;5.53;4.97;;;;;;;21.92;52.71;94095.97;2617233;47;20171;-76
2022/07/27 01:05:12;;;;;;;5.18;4.70;;;;;;;21.44;54.23;94097.63;2617047;54;20149;-75
2022/07/27 01:07:41;;;;;;;7.10;6.15;;;;;;;20.79;56.49;94101.53;2617141;54;20196;-75
2022/07/27 01:10:10;;;;;;;8.77;5.47;;;;;;;20.04;58.31;94061.63;2618017;31;20697;-76
2022/07/27 01:12:39;;;;;;;6.18;5.20;;;;;;;19.74;59.35;94077.06;2617058;49;20330;-76
2022/07/27 01:15:09;;;;;;;6.97;5.32;;;;;;;19.45;60.69;94059.41;2617301;47;20707;-75
2022/07/27 01:17:38;;;;;;;5.53;5.07;;;;;;;19.86;59.55;94094.88;2617010;54;20148;-75
2022/07/27 01:20:10;;;;;;;4.93;4.47;;;;;;;20.08;59.11;94087.44;2617053;54;20268;-76
2022/07/27 01:22:41;;;;;;;5.40;4.97;;;;;;;20.43;58.12;94084.81;2616995;54;20172;-77
2022/07/27 01:25:12;;;;;;;4.80;4.38;;;;;;;20.32;59.07;94072.72;2617342;47;20157;-76
2022/07/27 01:27:40;;;;;;;4.78;4.38;;;;;;;21.04;56.46;94081.03;2617006;54;20145;-76
2022/07/27 01:32:51;;;;;;;5.45;4.95;;;;;;;22.07;52.92;94110.84;2616881;54;20184;-76
2022/07/27 01:35:20;;;;;;;4.55;4.18;;;;;;;21.75;53.83;94074.69;2616990;47;20165;-77
2022/07/27 01:37:51;;;;;;;5.07;4.68;;;;;;;21.55;54.61;94092.38;2617122;54;20145;-77
2022/07/27 01:40:20;;;;;;;4.88;4.43;;;;;;;22.51;54.70;94105.59;2616225;54;20188;-75
2022/07/27 01:42:48;;;;;;;5.43;4.97;;;;;;;22.38;52.41;94105.16;2617313;54;20149;-75
2022/07/27 01:45:17;;;;;;;5.05;4.65;;;;;;;22.16;53.30;94111.38;2616927;54;20160;-77
2022/07/27 01:47:46;;;;;;;5.20;4.65;;;;;;;21.34;55.41;94117.22;2616983;54;20164;-76
2022/07/27 01:50:15;;;;;;;5.80;5.20;;;;;;;21.61;55.23;94115.31;2617504;47;20145;-77
2022/07/27 01:52:43;;;;;;;6.35;5.30;;;;;;;21.55;54.99;94101.03;2617241;54;20169;-77
2022/07/27 01:55:15;;;;;;;5.60;4.70;;;;;;;22.06;55.10;94102.94;2616909;54;20207;-77
2022/07/27 01:57:43;;;;;;;4.43;4.05;;;;;;;21.64;54.87;94074.19;2617076;54;20258;-76
2022/07/27 02:00:14;;;;;;;4.68;4.28;;;;;;;22.14;55.09;94091.94;2617029;47;20141;-76
2022/07/27 02:02:42;;;;;;;4.90;4.43;;;;;;;22.61;53.34;94108.25;2617322;54;20175;-75
2022/07/27 02:05:12;;;;;;;6.15;4.75;;;;;;;22.36;52.22;94116.72;2616781;47;20760;-77
2022/07/27 02:07:42;;;;;;;4.90;4.50;;;;;;;22.49;53.34;94103.47;2617038;47;20163;-77
2022/07/27 02:10:12;;;;;;;4.25;3.95;;;;;;;23.31;48.84;94091.44;2617102;54;20236;-75
2022/07/27 02:12:41;;;;;;;4.80;4.40;;;;;;;23.52;48.41;94105.38;2617166;54;20145;-75
2022/07/27 02:15:12;;;;;;;4.60;3.85;;;;;;;23.50;45.83;94073.63;2617383;47;20176;-76
2022/07/27 02:17:41;;;;;;;3.35;2.83;;;;;;;23.62;44.99;94091.41;2617232;54;20145;-75
2022/07/27 02:20:12;;;;;;;4.15;3.85;;;;;;;23.78;45.48;94101.09;2616669;54;20400;-75
2022/07/27 02:22:40;;;;;;;4.10;3.85;;;;;;;24.01;46.68;94110.59;2616892;47;20219;-75
2022/07/27 02:25:11;;;;;;;4.00;3.70;;;;;;;23.72;43.45;94070.88;2617361;47;20160;-76
2022/07/27 02:27:40;;;;;;;5.53;3.38;;;;;;;23.90;43.12;94095.00;2616758;54;20161;-75
2022/07/27 02:30:13;;;;;;;4.03;3.55;;;;;;;23.98;44.11;94118.59;2617795;54;20167;-76
2022/07/27 02:32:42;;;;;;;3.80;3.50;;;;;;;23.83;45.60;94108.91;2616984;47;20172;-76
2022/07/27 02:35:11;;;;;;;3.33;3.03;;;;;;;23.70;44.56;94096.25;2617686;54;20141;-76
2022/07/27 02:37:40;;;;;;;3.40;3.20;;;;;;;23.79;43.38;94108.28;2617199;47;20160;-76
2022/07/27 02:40:10;;;;;;;3.70;3.35;;;;;;;23.78;43.88;94098.91;2617639;54;20165;-75
2022/07/27 02:42:39;;;;;;;4.50;4.00;;;;;;;23.90;46.43;94118.13;2617220;47;20171;-76
2022/07/27 02:45:11;;;;;;;3.63;3.33;;;;;;;23.86;45.91;94100.88;2617684;47;20248;-75
2022/07/27 02:47:40;;;;;;;3.83;3.53;;;;;;;23.75;47.29;94083.09;2617421;47;20676;-76
2022/07/27 02:50:09;;;;;;;4.50;4.10;;;;;;;24.09;47.72;94116.84;2617656;54;20140;-76
2022/07/27 02:52:38;;;;;;;5.25;3.47;;;;;;;23.81;47.58;94085.09;2617670;47;20160;-76
2022/07/27 02:55:08;;;;;;;3.85;3.55;;;;;;;24.08;45.17;94115.44;2617360;54;20141;-75
2022/07/27 02:57:39;;;;;;;4.65;3.42;;;;;;;23.85;46.57;94099.47;2618222;31;20620;-76
2022/07/27 03:00:13;;;;;;;4.07;3.78;;;;;;;23.98;48.49;94130.16;2617343;47;20157;-77
2022/07/27 03:02:42;;;;;;;4.25;3.95;;;;;;;23.97;47.65;94119.38;2617637;54;20152;-77
2022/07/27 03:05:12;;;;;;;5.20;3.67;;;;;;;23.93;47.55;94111.50;2617284;54;20153;-75
2022/07/27 03:07:40;;;;;;;4.38;3.97;;;;;;;24.06;45.61;94135.72;2617656;47;20165;-75
2022/07/27 03:10:10;;;;;;;5.13;4.72;;;;;;;24.01;46.62;94125.75;2617389;47;20152;-77
2022/07/27 03:12:38;;;;;;;4.03;3.72;;;;;;;23.86;46.46;94127.63;2617353;46;20187;-76
2022/07/27 03:15:08;;;;;;;4.10;3.40;;;;;;;23.74;47.14;94122.16;2617427;54;20169;-75
2022/07/27 03:17:40;;;;;;;4.75;4.35;;;;;;;23.48;46.52;94132.19;2617245;54;20156;-76
2022/07/27 03:20:10;;;;;;;4.32;3.92;;;;;;;22.49;49.38;94132.31;2617623;54;20148;-76
2022/07/27 03:22:39;;;;;;;4.85;4.40;;;;;;;22.01;50.88;94157.09;2617181;47;20145;-76
2022/07/27 03:25:09;;;;;;;5.25;4.75;;;;;;;21.38;53.50;94146.69;2617512;47;20179;-75
2022/07/27 03:27:38;;;;;;;5.32;4.50;;;;;;;21.63;52.32;94159.22;2617067;54;20149;-75
2022/07/27 03:30:08;;;;;;;4.97;4.57;;;;;;;21.28;53.28;94158.38;2617446;47;20176;-75
2022/07/27 03:32:39;;;;;;;4.60;4.28;;;;;;;21.74;53.13;94148.19;2618234;39;20510;-75
2022/07/27 03:35:09;;;;;;;6.70;4.72;;;;;;;21.59;52.03;94149.94;2618824;39;20552;-75
2022/07/27 03:37:38;;;;;;;5.53;4.22;;;;;;;21.24;52.15;94121.00;2618015;47;20172;-75
2022/07/27 03:40:08;;;;;;;3.67;3.38;;;;;;;20.83;53.74;94123.78;2618124;54;20156;-75
2022/07/27 03:42:36;;;;;;;4.10;3.78;;;;;;;21.15;55.04;94154.25;2618053;54;20679;-75
2022/07/27 03:45:07;;;;;;;6.60;4.40;;;;;;;21.98;54.05;94133.34;2617948;54;20249;-76
2022/07/27 03:47:36;;;;;;;6.38;3.78;;;;;;;21.77;52.53;94138.06;2618383;47;20145;-75
2022/07/27 03:50:08;;;;;;;5.00;3.20;;;;;;;22.07;52.44;94127.44;2617845;47;20164;-74
2022/07/27 03:52:37;;;;;;;7.32;4.82;;;;;;;21.83;51.93;94161.03;2618131;54;20687;-76
2022/07/27 03:55:06;;;;;;;5.38;4.45;;;;;;;21.62;52.21;94159.94;2617678;54;20165;-76
2022/07/27 03:57:34;;;;;;;5.53;5.03;;;;;;;21.68;52.39;94136.78;2618265;47;20728;-76
2022/07/27 04:00:03;;;;;;;5.30;4.82;;;;;;;21.81;52.55;94166.09;2617792;46;20165;-76
2022/07/27 04:02:32;;;;;;;5.50;5.10;;;;;;;21.88;53.16;94171.00;2617999;47;20188;-76
2022/07/27 04:05:00;;;;;;;4.85;4.45;;;;;;;21.41;54.14;94162.47;2618004;54;20160;-76
2022/07/27 04:07:32;;;;;;;5.50;4.97;;;;;;;21.03;55.32;94155.16;2618233;47;20160;-76
2022/07/27 04:10:00;;;;;;;5.30;4.38;;;;;;;21.07;54.64;94160.13;2617953;46;20184;-77
2022/07/27 04:12:29;;;;;;;5.60;3.83;;;;;;;20.99;55.50;94125.72;2617891;46;20161;-77
2022/07/27 04:14:58;;;;;;;3.85;3.55;;;;;;;21.61;53.16;94167.16;2617857;54;20205;-76
2022/07/27 04:17:26;;;;;;;4.03;3.72;;;;;;;21.50;53.73;94166.63;2617985;54;20145;-76
2022/07/27 04:19:55;;;;;;;4.57;4.18;;;;;;;21.97;52.86;94169.41;2618115;47;20172;-76
2022/07/27 04:22:24;;;;;;;5.43;3.28;;;;;;;22.70;52.22;94165.03;2618078;47;20161;-76
2022/07/27 04:24:55;;;;;;;4.53;3.50;;;;;;;22.92;52.16;94163.16;2618007;47;20141;-77
2022/07/27 04:27:24;;;;;;;4.45;3.70;;;;;;;23.38;50.52;94176.50;2618079;54;20137;-77
2022/07/27 04:29:52;;;;;;;4.60;3.47;;;;;;;23.75;47.94;94169.84;2618213;54;20152;-76
2022/07/27 04:32:21;;;;;;;3.25;3.05;;;;;;;23.83;47.90;94171.81;2617556;54;20168;-76
2022/07/27 04:34:50;;;;;;;3.17;2.97;;;;;;;24.09;47.53;94171.09;2618208;47;20172;-74
2022/07/27 04:37:18;;;;;;;3.60;2.72;;;;;;;23.98;46.87;94184.41;2617767;50;20169;-74
2022/07/27 04:39:47;;;;;;;3.85;2.50;;;;;;;23.72;47.97;94148.94;2617747;47;20165;-75
2022/07/27 04:42:19;;;;;;;2.72;2.53;;;;;;;23.89;47.82;94146.34;2617751;54;20165;-77
2022/07/27 04:44:47;;;;;;;3.72;3.45;;;;;;;24.11;48.08;94179.72;2617545;54;20164;-75
2022/07/27 04:47:16;;;;;;;3.25;2.40;;;;;;;24.33;47.68;94181.31;2617896;47;20798;-75
2022/07/27 04:49:44;;;;;;;3.75;2.03;;;;;;;24.15;47.82;94176.72;2617673;47;20171;-76
2022/07/27 04:52:16;;;;;;;3.30;3.10;;;;;;;24.34;47.81;94191.41;2618046;47;20176;-76
2022/07/27 04:54:44;;;;;;;3.67;3.38;;;;;;;24.39;47.72;94193.44;2618930;39;20545;-75
2022/07/27 04:57:13;;;;;;;3.30;3.00;;;;;;;24.27;47.95;94184.38;2617674;47;20224;-74
2022/07/27 04:59:45;;;;;;;3.90;3.10;;;;;;;24.23;48.05;94175.81;2617717;47;20177;-76
2022/07/27 05:02:13;;;;;;;3.60;3.35;;;;;;;24.52;47.72;94204.69;2617333;47;20404;-75
2022/07/27 05:04:42;;;;;;;3.10;2.83;;;;;;;24.43;48.05;94210.00;2617273;47;20145;-75
2022/07/27 05:07:10;;;;;;;3.55;2.65;;;;;;;24.36;48.15;94203.66;2617211;47;20720;-75
2022/07/27 05:09:40;;;;;;;3.17;2.97;;;;;;;24.44;48.18;94202.72;2617065;54;20188;-75
2022/07/27 05:12:09;;;;;;;3.10;2.90;;;;;;;24.54;47.87;94193.75;2617008;54;20191;-76
2022/07/27 05:14:38;;;;;;;5.97;2.47;;;;;;;24.48;48.49;94210.56;2616767;54;20708;-75
2022/07/27 05:17:09;;;;;;;3.60;3.13;;;;;;;24.23;48.48;94187.38;2616919;47;20196;-74
2022/07/27 05:19:38;;;;;;;2.88;2.67;;;;;;;24.31;49.15;94213.22;2617280;46;20176;-77
2022/07/27 05:22:06;;;;;;;6.28;2.55;;;;;;;24.34;48.99;94215.28;2616819;54;20172;-75
2022/07/27 05:24:35;;;;;;;3.17;2.88;;;;;;;24.17;49.85;94207.78;2617288;54;20184;-75
2022/07/27 05:27:05;;;;;;;3.58;3.35;;;;;;;24.27;50.14;94224.91;2616855;47;20430;-74
2022/07/27 05:29:34;;;;;;;2.83;2.63;;;;;;;24.32;49.59;94211.75;2617444;47;20161;-75
2022/07/27 05:32:05;;;;;;;3.88;3.08;;;;;;;24.37;49.27;94204.34;2617534;54;20160;-77
2022/07/27 05:34:36;;;;;;;2.90;2.70;;;;;;;24.60;49.40;94221.84;2617325;47;20164;-78
2022/07/27 05:37:05;;;;;;;3.50;3.20;;;;;;;24.80;48.88;94227.75;2617339;54;20201;-77
2022/07/27 05:39:33;;;;;;;2.85;2.65;;;;;;;24.79;48.96;94206.03;2617389;54;20199;-77
2022/07/27 05:42:03;;;;;;;3.75;3.45;;;;;;;25.04;48.25;94203.16;2617305;54;20149;-76
2022/07/27 05:44:31;;;;;;;3.65;3.42;;;;;;;25.05;48.23;94219.06;2617463;47;20277;-76
2022/07/27 05:47:06;;;;;;;3.13;2.92;;;;;;;25.27;47.86;94208.28;2617276;47;20719;-76
2022/07/27 05:49:38;;;;;;;3.60;3.30;;;;;;;25.41;47.55;94214.34;2617188;54;20156;-76
2022/07/27 05:52:07;;;;;;;4.53;2.85;;;;;;;25.37;47.79;94211.56;2617415;47;20168;-74
2022/07/27 05:54:38;;;;;;;3.45;3.25;;;;;;;25.28;47.88;94215.50;2616414;54;20160;-76
2022/07/27 05:57:07;;;;;;;3.92;3.38;;;;;;;25.31;47.46;94200.16;2603996;47;20149;-76
2022/07/27 05:59:36;;;;;;;3.75;3.45;;;;;;;25.48;46.99;94189.47;2617155;54;20148;-77
2022/07/27 06:02:05;;;;;;;3.10;2.90;;;;;;;25.37;47.02;94162.28;2617185;54;20156;-76
2022/07/27 06:04:33;;;;;;;3.38;2.92;;;;;;;26.03;46.24;94230.47;2617494;54;20232;-77
2022/07/27 06:09:46;;;;;;;4.22;3.00;;;;;;;26.43;46.26;94231.28;2616939;47;20148;-78
2022/07/27 06:12:14;;;;;;;3.15;2.92;;;;;;;26.16;46.11;94187.94;2616639;47;20696;-78
2022/07/27 06:14:50;;;;;;;5.15;2.55;;;;;;;26.01;46.87;94228.34;2617352;47;20204;-76
2022/07/27 06:17:59;;;;;;;3.92;3.50;;;;;;;24.33;46.68;93993.22;2616422;47;20157;-76
2022/07/27 06:20:28;;;;;;;4.60;3.75;;;;;;;25.50;45.58;94076.31;2615857;54;20404;-78
2022/07/27 06:23:07;;;;;;;4.60;3.05;;;;;;;26.54;45.12;94194.59;2616600;47;20160;-78
2022/07/27 06:25:39;;;;;;;2.65;2.45;;;;;;;25.07;45.45;93986.50;2617078;54;20145;-78
2022/07/27 06:28:10;;;;;;;3.50;3.20;;;;;;;25.73;44.21;94063.97;2617216;47;20602;-78
2022/07/27 06:31:09;;;;;;;3.28;3.05;;;;;;;24.91;44.51;93966.75;2615943;47;20215;-81
2022/07/27 06:33:38;;;;;;;5.28;3.40;;;;;;;26.86;44.30;94236.97;2612739;47;20175;-80
2022/07/27 06:40:11;;;;;;;3.28;3.00;;;;;;;27.07;43.87;94196.25;2611931;47;20372;-77
2022/07/27 06:42:45;;;;;;;3.35;3.15;;;;;;;26.47;44.57;94124.44;2615166;47;20179;-77
2022/07/27 07:43:43;;;;;;;3.13;2.83;;;;;;;26.78;39.54;94004.88;2614921;47;20160;-77
2022/07/27 07:46:11;;;;;;;3.25;2.92;;;;;;;28.70;39.97;94210.66;2615220;54;20149;-77
2022/07/27 07:48:42;;;;;;;3.20;2.90;;;;;;;28.75;39.51;94203.16;2613929;54;20169;-76
2022/07/27 07:51:11;;;;;;;2.88;2.67;;;;;;;29.01;39.58;94215.84;2614694;54;20173;-77
2022/07/27 07:54:15;;;;;;;4.18;3.50;;;;;;;28.46;38.15;94063.19;2615207;54;20161;-80
2022/07/27 08:10:08;;;;;;;4.10;3.78;;;;;;;29.42;34.94;94062.28;2615196;47;20683;-77
2022/07/27 08:18:59;;;;;;;3.13;2.92;;;;;;;30.19;34.14;94125.56;2614739;47;20292;-79
2022/07/27 08:25:14;;;;;;;3.22;3.03;;;;;;;29.65;34.70;94100.53;2615455;47;20186;-76
2022/07/27 08:27:43;;;;;;;3.47;2.85;;;;;;;30.76;35.22;94216.81;2616111;54;20161;-78
2022/07/27 08:30:13;;;;;;;3.72;3.45;;;;;;;31.05;34.19;94219.63;2614426;54;20187;-76
2022/07/27 08:32:53;;;;;;;2.95;2.65;;;;;;;31.23;34.12;94215.03;2615266;47;20168;-75
2022/07/27 08:35:34;;;;;;;3.40;3.20;;;;;;;30.17;34.71;94154.88;2616961;54;20165;-79
2022/07/27 08:41:18;;;;;;;3.35;2.70;;;;;;;29.91;35.50;94178.03;2617249;39;20527;-76
2022/07/27 08:43:50;;;;;;;3.65;3.45;;;;;;;30.37;35.58;94206.38;2617500;47;20631;-78
2022/07/27 08:46:19;;;;;;;3.53;3.30;;;;;;;30.63;34.85;94178.03;2617032;47;20212;-77
2022/07/27 08:48:49;;;;;;;3.97;3.60;;;;;;;31.44;33.32;94209.47;2617552;47;20163;-78
